createdAt,value
2023-11-07T00:00:18.522Z,8.65
2023-11-07T00:02:46.354Z,5.68
2023-11-07T00:05:15.922Z,8.23
2023-11-07T00:07:43.692Z,10.43
2023-11-07T00:10:12.113Z,8.57
2023-11-07T00:12:39.865Z,7.03
2023-11-07T00:15:08.022Z,7.38
2023-11-07T00:17:35.914Z,5.75
2023-11-07T00:20:06.574Z,4.32
2023-11-07T00:22:34.391Z,5.53
2023-11-07T00:25:03.132Z,5.20
2023-11-07T00:27:30.946Z,5.65
2023-11-07T00:29:59.663Z,11.15
2023-11-07T00:32:27.400Z,7.13
2023-11-07T00:34:55.181Z,8.63
2023-11-07T00:37:22.869Z,7.88
2023-11-07T00:39:50.720Z,6.07
2023-11-07T00:42:18.413Z,6.20
2023-11-07T00:44:46.099Z,7.10
2023-11-07T00:47:14.167Z,6.53
2023-11-07T00:49:41.829Z,7.55
2023-11-07T00:52:09.409Z,7.72
2023-11-07T00:54:37.032Z,7.93
2023-11-07T00:57:04.793Z,8.93
2023-11-07T00:59:32.479Z,7.07
2023-11-07T01:02:00.442Z,6.78
2023-11-07T01:04:28.269Z,8.02
2023-11-07T01:06:55.981Z,8.07
2023-11-07T01:09:23.951Z,9.38
2023-11-07T01:11:51.923Z,7.88
2023-11-07T01:14:19.735Z,7.97
2023-11-07T01:16:47.437Z,6.70
2023-11-07T01:19:16.432Z,7.75
2023-11-07T01:21:44.170Z,5.97
2023-11-07T01:24:12.460Z,5.70
2023-11-07T01:26:40.165Z,4.50
2023-11-07T01:29:08.153Z,5.38
2023-11-07T01:31:35.764Z,6.35
2023-11-07T01:34:04.160Z,6.97
2023-11-07T01:36:31.969Z,8.18
2023-11-07T01:38:59.641Z,9.13
2023-11-07T01:41:27.269Z,9.60
2023-11-07T01:43:55.158Z,9.15
2023-11-07T01:46:23.197Z,5.00
2023-11-07T01:48:51.053Z,4.28
2023-11-07T01:51:19.475Z,3.97
2023-11-07T01:53:48.120Z,4.25
2023-11-07T01:56:15.884Z,4.70
2023-11-07T01:58:43.668Z,9.80
2023-11-07T02:01:11.789Z,7.50
2023-11-07T02:03:39.850Z,6.35
2023-11-07T02:06:08.383Z,8.65
2023-11-07T02:08:36.236Z,7.00
2023-11-07T02:11:04.045Z,6.68
2023-11-07T02:13:31.779Z,6.32
2023-11-07T02:15:59.483Z,7.40
2023-11-07T02:18:27.167Z,7.60
2023-11-07T02:20:55.874Z,7.63
2023-11-07T02:23:31.177Z,7.72
2023-11-07T02:25:59.031Z,6.30
2023-11-07T02:28:26.733Z,6.50
2023-11-07T02:30:54.473Z,6.75
2023-11-07T02:33:22.862Z,10.88
2023-11-07T02:35:50.807Z,12.70
2023-11-07T02:38:21.085Z,13.45
2023-11-07T02:40:50.439Z,15.65
2023-11-07T02:43:18.458Z,12.77
2023-11-07T02:45:46.260Z,10.02
2023-11-07T02:48:14.211Z,7.30
2023-11-07T02:50:42.271Z,7.78
2023-11-07T02:53:09.978Z,7.53
2023-11-07T02:55:38.164Z,5.95
2023-11-07T02:58:06.669Z,10.88
2023-11-07T03:00:34.344Z,6.63
2023-11-07T03:03:02.192Z,6.97
2023-11-07T03:05:30.094Z,8.20
2023-11-07T03:08:02.807Z,9.23
2023-11-07T03:10:30.495Z,9.57
2023-11-07T03:12:58.144Z,11.23
2023-11-07T03:15:25.766Z,7.35
2023-11-07T03:17:53.511Z,9.07
2023-11-07T03:20:21.917Z,8.80
2023-11-07T03:22:50.262Z,8.23
2023-11-07T03:25:18.124Z,6.72
2023-11-07T03:27:45.849Z,8.25
2023-11-07T03:30:13.612Z,5.93
2023-11-07T03:32:43.401Z,8.85
2023-11-07T03:35:12.906Z,9.88
2023-11-07T03:37:41.236Z,8.73
2023-11-07T03:40:09.622Z,9.48
2023-11-07T03:42:37.268Z,5.78
2023-11-07T03:45:06.731Z,7.68
2023-11-07T03:47:36.303Z,7.32
2023-11-07T03:50:04.420Z,6.60
2023-11-07T03:52:32.500Z,8.55
2023-11-07T03:55:00.171Z,9.60
2023-11-07T03:57:27.829Z,7.55
2023-11-07T03:59:55.502Z,6.63
2023-11-07T04:02:23.145Z,6.45
2023-11-07T04:04:50.774Z,7.72
2023-11-07T04:07:18.486Z,9.50
2023-11-07T04:09:46.112Z,6.78
2023-11-07T04:12:13.814Z,6.47
2023-11-07T04:14:41.469Z,9.10
2023-11-07T04:17:09.278Z,7.57
2023-11-07T04:19:37.112Z,10.55
2023-11-07T04:22:05.472Z,10.35
2023-11-07T04:24:33.202Z,10.02
2023-11-07T04:27:00.864Z,8.13
2023-11-07T04:29:28.459Z,5.90
2023-11-07T04:31:56.127Z,6.85
2023-11-07T04:34:23.863Z,7.20
2023-11-07T04:37:00.731Z,5.18
2023-11-07T04:39:28.444Z,7.35
2023-11-07T04:41:56.098Z,6.38
2023-11-07T04:44:23.839Z,6.97
2023-11-07T04:46:51.557Z,5.82
2023-11-07T04:49:19.959Z,5.20
2023-11-07T04:51:47.804Z,6.53
2023-11-07T04:54:15.959Z,5.20
2023-11-07T04:56:45.556Z,5.88
2023-11-07T04:59:14.595Z,18.02
2023-11-07T05:01:42.584Z,19.52
2023-11-07T05:04:11.015Z,17.00
2023-11-07T05:06:39.216Z,11.60
2023-11-07T05:09:10.174Z,8.00
2023-11-07T05:11:38.539Z,9.38
2023-11-07T05:14:07.035Z,7.38
2023-11-07T05:16:38.408Z,9.80
2023-11-07T05:19:09.385Z,5.90
2023-11-07T05:21:37.936Z,5.72
2023-11-07T05:24:06.237Z,4.75
2023-11-07T05:26:34.048Z,5.35
2023-11-07T05:29:02.086Z,4.80
2023-11-07T05:31:32.074Z,4.90
2023-11-07T05:34:01.909Z,5.18
2023-11-07T05:36:29.677Z,4.72
2023-11-07T05:38:57.415Z,6.20
2023-11-07T05:41:26.530Z,6.93
2023-11-07T05:43:54.192Z,6.68
2023-11-07T05:46:23.021Z,8.05
2023-11-07T05:48:52.962Z,5.72
2023-11-07T05:51:21.269Z,8.52
2023-11-07T05:53:48.964Z,6.43
2023-11-07T05:56:16.872Z,5.85
2023-11-07T05:58:47.083Z,6.38
2023-11-07T06:01:15.927Z,5.85
2023-11-07T06:03:43.745Z,5.75
2023-11-07T06:06:11.509Z,6.95
2023-11-07T06:08:39.238Z,8.20
2023-11-07T06:11:06.965Z,6.97
2023-11-07T06:13:34.671Z,4.97
2023-11-07T06:16:06.107Z,5.25
2023-11-07T06:18:34.419Z,5.55
2023-11-07T06:21:02.274Z,4.38
2023-11-07T06:23:30.024Z,3.67
2023-11-07T06:25:57.749Z,8.27
2023-11-07T06:28:25.580Z,7.13
2023-11-07T06:30:53.214Z,5.05
2023-11-07T06:33:21.077Z,5.03
2023-11-07T06:35:50.593Z,3.35
2023-11-07T06:38:20.060Z,4.35
2023-11-07T06:40:47.711Z,6.05
2023-11-07T06:43:15.398Z,4.43
2023-11-07T06:45:43.179Z,12.45
2023-11-07T06:48:11.336Z,7.60
2023-11-07T06:50:39.143Z,5.07
2023-11-07T06:53:06.748Z,4.13
2023-11-07T06:55:35.822Z,5.55
2023-11-07T06:58:04.578Z,4.22
2023-11-07T07:00:32.289Z,3.95
2023-11-07T07:03:02.637Z,4.63
2023-11-07T07:05:30.667Z,4.35
2023-11-07T07:07:58.344Z,4.45
2023-11-07T07:10:26.495Z,4.15
2023-11-07T07:12:55.083Z,4.15
2023-11-07T07:15:22.861Z,5.22
2023-11-07T07:17:50.615Z,4.45
2023-11-07T07:20:18.410Z,4.53
2023-11-07T07:22:46.191Z,4.63
2023-11-07T07:25:17.490Z,5.10
2023-11-07T07:27:47.158Z,4.63
2023-11-07T07:30:17.359Z,5.70
2023-11-07T07:32:46.803Z,4.85
2023-11-07T07:35:16.536Z,5.50
2023-11-07T07:37:44.515Z,4.82
2023-11-07T07:40:15.304Z,3.97
2023-11-07T07:42:46.491Z,4.25
2023-11-07T07:45:14.278Z,5.22
2023-11-07T07:47:42.811Z,5.43
2023-11-07T07:50:11.937Z,3.55
2023-11-07T07:55:24.051Z,6.47
2023-11-07T07:58:02.029Z,6.00
2023-11-07T08:00:32.621Z,5.72
2023-11-07T08:03:08.228Z,5.10
2023-11-07T08:05:42.047Z,5.32
2023-11-07T08:08:11.693Z,4.93
2023-11-07T08:10:40.857Z,5.03
2023-11-07T08:13:11.631Z,5.30
2023-11-07T08:15:39.802Z,4.55
2023-11-07T08:18:08.805Z,4.40
2023-11-07T08:20:39.715Z,3.90
2023-11-07T08:23:08.181Z,5.35
2023-11-07T08:25:36.203Z,5.25
2023-11-07T08:28:11.029Z,5.60
2023-11-07T08:30:39.520Z,4.63
2023-11-07T08:33:09.036Z,5.40
2023-11-07T08:35:40.482Z,5.75
2023-11-07T08:38:08.327Z,4.95
2023-11-07T08:40:36.754Z,7.03
2023-11-07T08:43:04.804Z,8.02
2023-11-07T08:45:34.369Z,9.38
2023-11-07T08:48:02.818Z,11.55
2023-11-07T08:50:30.684Z,7.82
2023-11-07T08:52:58.799Z,6.68
2023-11-07T08:55:27.458Z,5.47
2023-11-07T08:57:55.363Z,6.22
2023-11-07T09:00:24.033Z,4.63
2023-11-07T09:02:54.137Z,6.25
2023-11-07T09:05:23.750Z,8.05
2023-11-07T09:07:51.822Z,5.75
2023-11-07T09:10:21.745Z,5.22
2023-11-07T09:12:49.527Z,4.78
2023-11-07T09:15:21.314Z,4.57
2023-11-07T09:17:49.485Z,4.35
2023-11-07T09:20:17.450Z,4.93
2023-11-07T09:22:45.646Z,6.15
2023-11-07T09:25:13.612Z,6.63
2023-11-07T09:27:41.449Z,5.68
2023-11-07T09:30:12.726Z,9.10
2023-11-07T09:32:45.086Z,5.57
2023-11-07T09:35:13.005Z,4.78
2023-11-07T09:37:43.536Z,5.35
2023-11-07T09:40:21.062Z,6.00
2023-11-07T09:42:52.443Z,6.47
2023-11-07T09:45:20.913Z,6.20
2023-11-07T09:47:50.550Z,6.75
2023-11-07T09:50:23.439Z,6.70
2023-11-07T09:52:52.542Z,6.32
2023-11-07T09:55:20.337Z,6.55
2023-11-07T09:58:05.385Z,5.45
2023-11-07T10:00:46.866Z,5.32
2023-11-07T10:03:16.321Z,5.15
2023-11-07T10:05:47.755Z,4.97
2023-11-07T10:08:17.584Z,5.47
2023-11-07T10:11:05.227Z,5.88
2023-11-07T10:13:32.894Z,6.38
2023-11-07T10:18:51.538Z,5.40
2023-11-07T10:21:36.624Z,5.40
2023-11-07T10:24:05.169Z,4.75
2023-11-07T10:26:33.074Z,4.88
2023-11-07T10:29:26.996Z,6.65
2023-11-07T10:32:05.459Z,5.78
2023-11-07T10:34:34.068Z,5.20
2023-11-07T10:37:01.775Z,6.07
2023-11-07T10:39:31.504Z,5.38
2023-11-07T10:42:20.045Z,6.30
2023-11-07T10:44:51.420Z,5.63
2023-11-07T10:47:23.305Z,7.05
2023-11-07T10:49:52.932Z,5.30
2023-11-07T10:52:21.129Z,7.18
2023-11-07T10:54:48.872Z,6.68
2023-11-07T10:57:24.088Z,6.00
2023-11-07T11:00:22.936Z,6.78
2023-11-07T11:02:55.091Z,6.18
2023-11-07T11:05:44.626Z,6.18
2023-11-07T11:08:17.693Z,6.93
2023-11-07T11:10:45.978Z,6.25
2023-11-07T11:13:17.226Z,5.78
2023-11-07T11:15:47.502Z,5.63
2023-11-07T11:18:24.698Z,7.10
2023-11-07T11:21:03.604Z,5.25
2023-11-07T11:23:41.601Z,6.43
2023-11-07T11:26:27.981Z,5.40
2023-11-07T11:28:55.913Z,6.22
2023-11-07T11:31:25.892Z,5.82
2023-11-07T11:34:27.544Z,5.88
2023-11-07T11:37:03.392Z,5.75
2023-11-07T11:39:31.077Z,5.82
2023-11-07T11:42:02.827Z,5.03
2023-11-07T11:44:30.807Z,6.28
2023-11-07T11:47:00.972Z,5.53
2023-11-07T11:49:28.897Z,5.35
2023-11-07T11:51:58.544Z,8.98
2023-11-07T11:54:26.317Z,7.38
2023-11-07T11:56:56.985Z,5.70
2023-11-07T11:59:26.436Z,5.05
2023-11-07T12:01:59.777Z,5.07
2023-11-07T12:04:38.290Z,4.38
2023-11-07T12:07:11.920Z,4.47
2023-11-07T12:09:41.954Z,5.30
2023-11-07T12:12:09.817Z,9.07
2023-11-07T12:15:00.802Z,13.52
2023-11-07T12:17:34.097Z,7.20
2023-11-07T12:20:08.044Z,6.38
2023-11-07T12:22:37.361Z,7.35
2023-11-07T12:25:19.436Z,6.93
2023-11-07T12:28:05.307Z,5.63
2023-11-07T12:30:35.558Z,7.13
2023-11-07T12:33:10.345Z,7.32
2023-11-07T12:35:40.160Z,7.07
2023-11-07T12:38:10.648Z,6.57
2023-11-07T12:40:42.385Z,7.35
2023-11-07T12:43:10.634Z,6.82
2023-11-07T12:45:39.492Z,7.60
2023-11-07T12:48:11.608Z,10.05
2023-11-07T12:50:44.483Z,9.95
2023-11-07T12:55:51.285Z,9.70
2023-11-07T12:58:28.778Z,11.63
2023-11-07T13:00:59.455Z,13.65
2023-11-07T13:03:34.381Z,7.10
2023-11-07T13:06:11.255Z,6.95
2023-11-07T13:08:46.012Z,7.10
2023-11-07T13:11:20.353Z,6.35
2023-11-07T13:13:52.440Z,6.72
2023-11-07T13:16:20.573Z,6.68
2023-11-07T13:18:58.782Z,6.75
2023-11-07T13:21:27.185Z,5.47
2023-11-07T13:23:55.307Z,4.47
2023-11-07T13:26:24.563Z,5.18
2023-11-07T13:28:52.400Z,4.28
2023-11-07T13:31:20.276Z,5.18
2023-11-07T13:33:48.190Z,5.53
2023-11-07T13:36:16.895Z,4.95
2023-11-07T13:38:49.024Z,4.88
2023-11-07T13:41:17.503Z,4.40
2023-11-07T13:43:45.379Z,7.40
2023-11-07T13:46:18.850Z,9.63
2023-11-07T13:48:47.567Z,5.78
2023-11-07T13:51:15.401Z,5.70
2023-11-07T13:53:43.081Z,5.60
2023-11-07T13:56:15.812Z,4.60
2023-11-07T13:58:44.850Z,6.22
2023-11-07T14:01:13.037Z,7.50
2023-11-07T14:03:41.729Z,7.00
2023-11-07T14:06:09.706Z,6.07
2023-11-07T14:08:37.384Z,6.57
2023-11-07T14:11:05.646Z,5.80
2023-11-07T14:13:33.295Z,7.53
2023-11-07T14:16:00.931Z,6.28
2023-11-07T14:18:28.891Z,4.45
2023-11-07T14:20:59.898Z,5.35
2023-11-07T14:23:29.652Z,6.13
2023-11-07T14:25:59.231Z,8.73
2023-11-07T14:28:29.879Z,20.38
2023-11-07T14:30:59.097Z,23.02
2023-11-07T14:33:29.410Z,21.95
2023-11-07T14:35:58.517Z,15.77
2023-11-07T14:38:30.096Z,8.65
2023-11-07T14:40:58.974Z,6.75
2023-11-07T14:43:26.897Z,14.55
2023-11-07T14:45:54.675Z,17.48
2023-11-07T14:48:23.401Z,10.02
2023-11-07T14:50:54.429Z,12.20
2023-11-07T14:53:28.088Z,13.27
2023-11-07T14:55:58.586Z,11.52
2023-11-07T14:58:26.495Z,13.40
2023-11-07T15:00:55.412Z,12.88
2023-11-07T15:03:24.065Z,9.82
2023-11-07T15:05:53.368Z,7.60
2023-11-07T15:08:21.231Z,6.57
2023-11-07T15:10:48.950Z,6.22
2023-11-07T15:13:16.648Z,6.03
2023-11-07T15:15:44.482Z,8.93
2023-11-07T15:18:12.594Z,10.40
2023-11-07T15:20:42.272Z,10.73
2023-11-07T15:23:12.101Z,9.10
2023-11-07T15:25:41.038Z,8.35
2023-11-07T15:28:08.786Z,6.43
2023-11-07T15:30:37.110Z,5.88
2023-11-07T15:33:05.292Z,5.50
2023-11-07T15:35:37.934Z,4.68
2023-11-07T15:38:09.708Z,5.47
2023-11-07T15:40:40.964Z,4.20
2023-11-07T15:43:10.069Z,4.22
2023-11-07T15:45:38.244Z,4.97
2023-11-07T15:48:09.617Z,9.77
2023-11-07T15:50:38.297Z,13.23
2023-11-07T15:53:08.857Z,11.52
2023-11-07T15:55:39.160Z,15.02
2023-11-07T15:58:07.576Z,23.00
2023-11-07T16:00:36.012Z,14.13
2023-11-07T16:03:05.626Z,8.98
2023-11-07T16:05:36.369Z,9.02
2023-11-07T16:08:07.450Z,8.25
2023-11-07T16:10:36.170Z,9.68
2023-11-07T16:13:04.682Z,9.07
2023-11-07T16:15:34.065Z,9.10
2023-11-07T16:18:02.974Z,10.00
2023-11-07T16:20:30.806Z,9.68
2023-11-07T16:22:58.566Z,10.40
2023-11-07T16:25:26.247Z,10.38
2023-11-07T16:27:54.929Z,13.15
2023-11-07T16:30:23.139Z,19.73
2023-11-07T16:32:52.222Z,8.15
2023-11-07T16:35:20.110Z,4.85
2023-11-07T16:37:47.923Z,3.50
2023-11-07T16:40:17.882Z,4.68
2023-11-07T16:42:46.347Z,6.22
2023-11-07T16:45:16.178Z,5.82
2023-11-07T16:47:45.188Z,6.75
2023-11-07T16:50:14.483Z,6.85
2023-11-07T16:52:43.699Z,4.78
2023-11-07T16:55:15.218Z,4.38
2023-11-07T16:57:46.085Z,5.50
2023-11-07T17:00:18.661Z,6.70
2023-11-07T17:02:46.841Z,4.28
2023-11-07T17:05:16.895Z,7.68
2023-11-07T17:07:45.690Z,32.65
2023-11-07T17:10:14.081Z,44.28
2023-11-07T17:12:43.945Z,31.10
2023-11-07T17:15:13.476Z,20.33
2023-11-07T17:17:42.080Z,23.63
2023-11-07T17:20:13.963Z,21.85
2023-11-07T17:22:44.181Z,15.38
2023-11-07T17:25:12.203Z,37.53
2023-11-07T17:27:47.892Z,24.23
2023-11-07T17:30:19.786Z,14.80
2023-11-07T17:32:48.434Z,20.35
2023-11-07T17:35:16.178Z,30.65
2023-11-07T17:37:44.996Z,11.95
2023-11-07T17:40:13.395Z,6.05
2023-11-07T17:42:41.563Z,10.60
2023-11-07T17:45:11.257Z,8.43
2023-11-07T17:47:40.218Z,7.13
2023-11-07T17:50:09.741Z,9.25
2023-11-07T17:52:41.196Z,5.72
2023-11-07T17:55:09.196Z,5.28
2023-11-07T17:57:37.509Z,8.70
2023-11-07T18:00:07.833Z,5.43
2023-11-07T18:02:42.627Z,6.43
2023-11-07T18:05:11.630Z,5.28
2023-11-07T18:07:40.575Z,9.73
2023-11-07T18:10:10.415Z,15.43
2023-11-07T18:12:40.240Z,11.95
2023-11-07T18:15:10.095Z,10.73
2023-11-07T18:17:40.411Z,9.93
2023-11-07T18:20:14.142Z,7.18
2023-11-07T18:22:43.855Z,7.00
2023-11-07T18:25:13.237Z,7.68
2023-11-07T18:27:44.681Z,6.82
2023-11-07T18:30:13.151Z,6.40
2023-11-07T18:32:42.390Z,9.52
2023-11-07T18:35:13.007Z,12.63
2023-11-07T18:37:43.325Z,14.43
2023-11-07T18:40:14.203Z,9.00
2023-11-07T18:42:42.999Z,6.10
2023-11-07T18:45:12.642Z,4.75
2023-11-07T18:47:42.446Z,12.48
2023-11-07T18:50:13.361Z,11.88
2023-11-07T18:52:44.265Z,7.63
2023-11-07T18:55:13.593Z,6.80
2023-11-07T18:57:45.553Z,7.10
2023-11-07T19:00:18.522Z,7.38
2023-11-07T19:02:49.489Z,12.25
2023-11-07T19:05:20.123Z,10.32
2023-11-07T19:07:48.975Z,7.93
2023-11-07T19:10:21.226Z,8.73
2023-11-07T19:12:50.808Z,11.05
2023-11-07T19:15:20.773Z,9.00
2023-11-07T19:17:51.861Z,12.48
2023-11-07T19:20:20.726Z,9.43
2023-11-07T19:22:50.672Z,13.52
2023-11-07T19:25:21.259Z,14.75
2023-11-07T19:28:11.365Z,11.73
2023-11-07T19:30:41.354Z,10.05
2023-11-07T19:33:12.044Z,13.77
2023-11-07T19:35:43.317Z,11.80
2023-11-07T19:38:13.002Z,7.55
2023-11-07T19:40:43.500Z,4.88
2023-11-07T19:43:15.400Z,5.03
2023-11-07T19:45:46.728Z,4.82
2023-11-07T19:48:16.872Z,4.85
2023-11-07T19:50:49.059Z,6.53
2023-11-07T19:53:17.728Z,6.57
2023-11-07T19:55:47.139Z,9.32
2023-11-07T19:58:16.165Z,8.95
2023-11-07T20:00:47.154Z,9.65
2023-11-07T20:03:15.369Z,11.50
2023-11-07T20:05:49.493Z,9.23
2023-11-07T20:08:21.503Z,10.23
2023-11-07T20:10:50.395Z,10.90
2023-11-07T20:13:22.170Z,13.23
2023-11-07T20:15:50.547Z,13.35
2023-11-07T20:18:20.709Z,10.40
2023-11-07T20:20:51.172Z,7.03
2023-11-07T20:23:19.919Z,6.85
2023-11-07T20:25:48.880Z,6.88
2023-11-07T20:28:20.178Z,10.27
2023-11-07T20:30:51.007Z,11.15
2023-11-07T20:33:19.794Z,13.15
2023-11-07T20:35:49.670Z,19.70
2023-11-07T20:38:24.450Z,20.77
2023-11-07T20:40:52.898Z,33.92
2023-11-07T20:43:23.152Z,19.40
2023-11-07T20:45:52.725Z,14.35
2023-11-07T20:48:21.805Z,10.10
2023-11-07T20:50:52.352Z,10.18
2023-11-07T20:53:21.522Z,7.53
2023-11-07T20:55:50.708Z,6.63
2023-11-07T20:58:19.877Z,6.05
2023-11-07T21:00:49.067Z,10.50
2023-11-07T21:03:18.143Z,8.77
2023-11-07T21:05:46.903Z,8.07
2023-11-07T21:08:15.230Z,6.43
2023-11-07T21:10:43.035Z,7.72
2023-11-07T21:13:11.433Z,9.80
2023-11-07T21:15:40.669Z,8.20
2023-11-07T21:18:08.980Z,17.35
2023-11-07T21:20:36.769Z,21.75
2023-11-07T21:23:05.162Z,17.33
2023-11-07T21:25:33.051Z,12.90
2023-11-07T21:28:01.160Z,16.55
2023-11-07T21:30:29.516Z,25.58
2023-11-07T21:32:57.901Z,16.75
2023-11-07T21:35:25.764Z,9.25
2023-11-07T21:37:53.437Z,9.38
2023-11-07T21:40:22.283Z,7.60
2023-11-07T21:42:50.037Z,7.57
2023-11-07T21:45:17.872Z,7.45
2023-11-07T21:47:45.715Z,5.00
2023-11-07T21:50:13.425Z,3.90
2023-11-07T21:52:41.214Z,4.90
2023-11-07T21:55:09.412Z,4.93
2023-11-07T21:57:37.730Z,3.60
2023-11-07T22:00:06.100Z,2.92
2023-11-07T22:02:40.633Z,3.13
2023-11-07T22:05:11.062Z,4.35
2023-11-07T22:07:38.869Z,3.92
2023-11-07T22:10:10.845Z,3.38
2023-11-07T22:12:39.095Z,3.47
2023-11-07T22:15:07.459Z,3.47
2023-11-07T22:17:35.440Z,4.30
2023-11-07T22:20:04.269Z,3.92
2023-11-07T22:22:31.951Z,4.63
2023-11-07T22:24:59.608Z,5.47
2023-11-07T22:27:27.338Z,5.93
2023-11-07T22:29:55.124Z,4.65
2023-11-07T22:32:22.913Z,6.05
2023-11-07T22:34:51.039Z,5.07
2023-11-07T22:37:18.805Z,5.57
2023-11-07T22:39:46.469Z,4.32
2023-11-07T22:42:14.196Z,4.85
2023-11-07T22:44:41.933Z,4.97
2023-11-07T22:47:09.655Z,4.90
2023-11-07T22:49:37.444Z,4.70
2023-11-07T22:52:05.545Z,5.15
2023-11-07T22:54:33.477Z,4.03
2023-11-07T22:57:01.276Z,5.93
2023-11-07T22:59:29.683Z,4.70
2023-11-07T23:01:57.616Z,4.20
2023-11-07T23:04:25.492Z,4.40
2023-11-07T23:06:56.987Z,4.15
2023-11-07T23:09:24.814Z,4.18
2023-11-07T23:11:52.753Z,4.22
2023-11-07T23:14:23.630Z,4.25
2023-11-07T23:16:51.921Z,4.75
2023-11-07T23:19:19.718Z,4.20
2023-11-07T23:21:48.089Z,4.47
2023-11-07T23:24:15.753Z,4.97
2023-11-07T23:26:48.160Z,5.50
2023-11-07T23:29:18.436Z,5.28
2023-11-07T23:31:46.173Z,5.35
2023-11-07T23:34:16.886Z,5.18
2023-11-07T23:36:47.410Z,6.45
2023-11-07T23:39:15.117Z,6.80
2023-11-07T23:41:43.504Z,6.70
2023-11-07T23:44:11.546Z,5.78
2023-11-07T23:46:41.515Z,5.88
2023-11-07T23:49:10.494Z,6.63
2023-11-07T23:51:38.147Z,6.75
2023-11-07T23:54:07.223Z,6.57
2023-11-07T23:56:36.408Z,6.57
2023-11-07T23:59:04.173Z,6.07
